createdAt,value
2023-03-17T00:01:10.749Z,4.00
2023-03-17T00:03:40.563Z,4.40
2023-03-17T00:06:16.031Z,3.33
2023-03-17T00:08:43.467Z,3.40
2023-03-17T00:11:13.725Z,3.90
2023-03-17T00:13:41.751Z,3.57
2023-03-17T00:16:16.585Z,3.20
2023-03-17T00:18:44.657Z,3.53
2023-03-17T00:21:16.906Z,3.30
2023-03-17T00:23:51.574Z,3.10
2023-03-17T00:26:18.666Z,2.90
2023-03-17T00:28:45.444Z,3.00
2023-03-17T00:31:14.158Z,2.77
2023-03-17T00:33:41.626Z,3.30
2023-03-17T00:36:13.607Z,3.40
2023-03-17T00:38:40.111Z,3.13
2023-03-17T00:41:09.832Z,3.20
2023-03-17T00:43:36.752Z,2.90
2023-03-17T00:46:11.591Z,3.10
2023-03-17T00:48:39.131Z,2.93
2023-03-17T00:51:05.976Z,3.10
2023-03-17T00:53:32.662Z,2.83
2023-03-17T00:55:59.131Z,2.80
2023-03-17T00:58:31.578Z,2.80
2023-03-17T01:00:59.684Z,2.53
2023-03-17T01:03:27.537Z,3.00
2023-03-17T01:05:57.715Z,2.90
2023-03-17T01:08:25.733Z,3.00
2023-03-17T01:10:52.615Z,2.70
2023-03-17T01:13:19.225Z,2.77
2023-03-17T01:15:47.666Z,2.70
2023-03-17T01:18:16.856Z,2.93
2023-03-17T01:20:43.536Z,3.00
2023-03-17T01:23:12.165Z,2.20
2023-03-17T01:25:42.834Z,2.70
2023-03-17T01:28:18.545Z,2.77
2023-03-17T01:30:46.935Z,2.67
2023-03-17T01:33:14.491Z,2.80
2023-03-17T01:35:43.618Z,2.80
2023-03-17T01:38:10.270Z,2.80
2023-03-17T01:40:42.540Z,2.70
2023-03-17T01:43:08.964Z,2.70
2023-03-17T01:46:13.390Z,3.23
2023-03-17T01:49:03.638Z,2.90
2023-03-17T01:51:32.439Z,2.80
2023-03-17T01:54:06.685Z,2.63
2023-03-17T01:56:35.126Z,2.33
2023-03-17T01:59:05.503Z,2.90
2023-03-17T02:01:39.938Z,2.83
2023-03-17T02:04:08.554Z,2.30
2023-03-17T02:06:37.010Z,2.73
2023-03-17T02:09:07.865Z,2.30
2023-03-17T02:11:35.826Z,2.77
2023-03-17T02:14:02.667Z,2.60
2023-03-17T02:16:30.118Z,2.43
2023-03-17T02:18:56.608Z,2.70
2023-03-17T02:21:40.955Z,2.83
2023-03-17T02:24:48.785Z,2.90
2023-03-17T02:27:41.802Z,3.20
2023-03-17T02:30:11.816Z,2.73
2023-03-17T02:32:38.735Z,2.70
2023-03-17T02:35:08.285Z,2.80
2023-03-17T02:37:37.448Z,2.87
2023-03-17T02:40:05.676Z,2.70
2023-03-17T02:42:35.636Z,3.23
2023-03-17T02:45:02.254Z,3.17
2023-03-17T02:47:28.770Z,3.77
2023-03-17T02:49:55.362Z,3.70
2023-03-17T02:52:21.811Z,4.07
2023-03-17T02:54:48.447Z,3.20
2023-03-17T02:57:14.913Z,3.10
2023-03-17T02:59:41.624Z,2.90
2023-03-17T03:02:08.385Z,3.73
2023-03-17T03:04:35.885Z,3.60
2023-03-17T03:07:02.776Z,3.70
2023-03-17T03:09:29.795Z,3.23
2023-03-17T03:11:56.734Z,3.53
2023-03-17T03:14:23.489Z,3.00
2023-03-17T03:16:50.284Z,2.93
2023-03-17T03:19:16.731Z,2.70
2023-03-17T03:21:43.199Z,3.07
2023-03-17T03:24:10.898Z,2.70
2023-03-17T03:26:37.327Z,2.67
2023-03-17T03:29:04.750Z,2.83
2023-03-17T03:31:31.618Z,2.77
2023-03-17T03:33:58.061Z,2.97
2023-03-17T03:36:25.399Z,2.77
2023-03-17T03:38:51.899Z,3.10
2023-03-17T03:41:18.322Z,3.13
2023-03-17T03:43:44.858Z,2.97
2023-03-17T03:46:11.366Z,3.13
2023-03-17T03:48:37.802Z,2.63
2023-03-17T03:51:04.317Z,3.00
2023-03-17T03:53:31.032Z,2.80
2023-03-17T03:55:57.477Z,2.80
2023-03-17T03:58:24.057Z,2.73
2023-03-17T04:00:50.606Z,3.00
2023-03-17T04:03:17.221Z,3.73
2023-03-17T04:05:43.677Z,3.23
2023-03-17T04:08:11.332Z,3.10
2023-03-17T04:10:38.076Z,3.10
2023-03-17T04:13:04.500Z,2.97
2023-03-17T04:15:31.145Z,3.30
2023-03-17T04:17:57.615Z,2.80
2023-03-17T04:20:24.046Z,2.90
2023-03-17T04:22:50.474Z,3.33
2023-03-17T04:25:16.986Z,3.17
2023-03-17T04:27:43.440Z,3.10
2023-03-17T04:30:13.683Z,3.00
2023-03-17T04:32:40.962Z,4.83
2023-03-17T04:35:10.935Z,3.70
2023-03-17T04:37:38.699Z,3.00
2023-03-17T04:40:09.852Z,3.60
2023-03-17T04:42:37.567Z,3.33
2023-03-17T04:45:06.330Z,3.10
2023-03-17T04:47:33.339Z,3.33
2023-03-17T04:49:59.854Z,3.97
2023-03-17T04:52:26.282Z,4.03
2023-03-17T04:54:53.192Z,3.87
2023-03-17T04:57:19.682Z,3.73
2023-03-17T04:59:46.206Z,3.50
2023-03-17T05:02:12.821Z,3.47
2023-03-17T05:04:39.804Z,3.27
2023-03-17T05:07:06.460Z,3.40
2023-03-17T05:09:32.952Z,3.20
2023-03-17T05:11:59.521Z,3.20
2023-03-17T05:14:26.000Z,3.20
2023-03-17T05:16:52.465Z,3.10
2023-03-17T05:19:19.063Z,2.90
2023-03-17T05:21:46.645Z,3.33
2023-03-17T05:24:13.095Z,3.20
2023-03-17T05:26:39.946Z,2.90
2023-03-17T05:29:07.102Z,2.93
2023-03-17T05:31:33.840Z,3.00
2023-03-17T05:34:00.567Z,2.60
2023-03-17T05:36:27.012Z,2.83
2023-03-17T05:38:54.457Z,2.67
2023-03-17T05:41:21.626Z,2.50
2023-03-17T05:43:48.112Z,3.23
2023-03-17T05:46:15.084Z,2.93
2023-03-17T05:48:41.848Z,2.80
2023-03-17T05:51:08.310Z,3.40
2023-03-17T05:53:36.184Z,3.00
2023-03-17T05:56:03.141Z,3.33
2023-03-17T05:58:29.761Z,3.37
2023-03-17T06:00:56.947Z,4.47
2023-03-17T06:03:23.786Z,5.43
2023-03-17T06:05:50.350Z,4.40
2023-03-17T06:08:17.093Z,4.90
2023-03-17T06:10:43.603Z,3.77
2023-03-17T06:13:11.010Z,3.60
2023-03-17T06:15:37.818Z,4.20
2023-03-17T06:18:05.126Z,4.53
2023-03-17T06:20:33.049Z,5.30
2023-03-17T06:23:05.067Z,5.37
2023-03-17T06:25:34.110Z,4.77
2023-03-17T06:28:03.540Z,3.23
2023-03-17T06:30:31.306Z,2.60
2023-03-17T06:32:58.032Z,2.83
2023-03-17T06:35:25.186Z,2.17
2023-03-17T06:37:51.753Z,2.20
2023-03-17T06:40:18.366Z,2.40
2023-03-17T06:42:44.813Z,2.23
2023-03-17T06:45:12.344Z,2.77
2023-03-17T06:47:39.757Z,2.83
2023-03-17T06:50:09.701Z,2.93
2023-03-17T06:52:37.148Z,3.20
2023-03-17T06:55:05.094Z,2.97
2023-03-17T06:57:31.916Z,2.80
2023-03-17T06:59:58.754Z,3.00
2023-03-17T07:02:25.426Z,2.60
2023-03-17T07:04:52.136Z,3.00
2023-03-17T07:07:20.731Z,3.10
2023-03-17T07:09:47.810Z,2.97
2023-03-17T07:12:14.416Z,3.30
2023-03-17T07:14:41.541Z,2.70
2023-03-17T07:17:11.988Z,3.33
2023-03-17T07:19:38.916Z,3.20
2023-03-17T07:22:05.441Z,2.90
2023-03-17T07:24:32.157Z,2.90
2023-03-17T07:26:59.754Z,2.90
2023-03-17T07:29:27.058Z,3.73
2023-03-17T07:31:53.918Z,3.30
2023-03-17T07:34:20.525Z,3.17
2023-03-17T07:36:46.941Z,3.07
2023-03-17T07:39:13.374Z,2.80
2023-03-17T07:41:40.240Z,2.70
2023-03-17T07:44:11.262Z,3.07
2023-03-17T07:46:38.858Z,2.37
2023-03-17T07:49:06.030Z,3.10
2023-03-17T07:51:32.534Z,3.00
2023-03-17T07:54:03.771Z,3.40
2023-03-17T07:56:31.747Z,3.80
2023-03-17T07:58:59.065Z,3.40
2023-03-17T08:01:26.782Z,3.20
2023-03-17T08:03:53.916Z,3.50
2023-03-17T08:06:21.561Z,3.20
2023-03-17T08:08:48.458Z,3.33
2023-03-17T08:11:15.591Z,3.60
2023-03-17T08:13:42.263Z,3.67
2023-03-17T08:16:09.214Z,3.43
2023-03-17T08:18:36.512Z,2.70
2023-03-17T08:21:03.480Z,2.97
2023-03-17T08:23:30.973Z,2.67
2023-03-17T08:25:59.243Z,2.47
2023-03-17T08:28:25.835Z,2.30
2023-03-17T08:30:52.656Z,2.85
2023-03-17T08:33:19.166Z,2.63
2023-03-17T08:35:45.995Z,2.78
2023-03-17T08:38:12.701Z,2.20
2023-03-17T08:40:40.125Z,1.92
2023-03-17T08:43:07.665Z,2.10
2023-03-17T08:45:34.447Z,2.08
2023-03-17T08:48:01.222Z,2.92
2023-03-17T08:50:27.817Z,1.50
2023-03-17T08:52:55.074Z,1.13
2023-03-17T08:55:21.549Z,0.85
2023-03-17T08:57:48.635Z,1.00
2023-03-17T09:00:20.270Z,1.20
2023-03-17T09:02:48.644Z,1.10
2023-03-17T09:05:16.711Z,1.38
2023-03-17T09:07:43.813Z,1.00
2023-03-17T09:10:11.123Z,0.93
2023-03-17T09:12:38.167Z,0.80
2023-03-17T09:15:06.171Z,1.05
2023-03-17T09:17:33.113Z,0.80
2023-03-17T09:19:59.648Z,0.98
2023-03-17T09:22:26.285Z,1.00
2023-03-17T09:24:53.153Z,1.00
2023-03-17T09:27:19.563Z,1.25
2023-03-17T09:29:46.549Z,1.60
2023-03-17T09:32:13.018Z,1.00
2023-03-17T09:34:39.552Z,1.73
2023-03-17T09:37:06.818Z,1.33
2023-03-17T09:39:33.449Z,1.63
2023-03-17T09:42:09.262Z,1.08
2023-03-17T09:44:54.405Z,1.02
2023-03-17T09:47:47.004Z,1.30
2023-03-17T09:50:22.079Z,1.30
2023-03-17T09:52:51.506Z,1.02
2023-03-17T09:55:31.201Z,1.02
2023-03-17T09:57:58.880Z,1.30
2023-03-17T10:00:29.221Z,1.45
2023-03-17T10:02:57.967Z,1.17
2023-03-17T10:05:27.361Z,1.20
2023-03-17T10:08:29.499Z,1.10
2023-03-17T10:11:24.343Z,1.00
2023-03-17T10:14:11.138Z,1.15
2023-03-17T10:16:51.386Z,1.17
2023-03-17T10:19:32.453Z,1.20
2023-03-17T10:22:29.303Z,1.30
2023-03-17T10:25:03.688Z,1.60
2023-03-17T10:27:34.196Z,1.20
2023-03-17T10:30:00.887Z,1.05
2023-03-17T10:32:29.750Z,1.73
2023-03-17T10:34:57.205Z,1.55
2023-03-17T10:37:24.318Z,1.42
2023-03-17T10:39:53.100Z,1.33
2023-03-17T10:42:29.100Z,1.30
2023-03-17T10:44:58.560Z,1.30
2023-03-17T10:47:34.661Z,1.23
2023-03-17T10:50:32.549Z,1.08
2023-03-17T10:53:23.489Z,1.02
2023-03-17T10:55:52.559Z,1.30
2023-03-17T10:58:21.784Z,1.02
2023-03-17T11:01:02.504Z,1.30
2023-03-17T11:03:34.123Z,1.30
2023-03-17T11:06:08.795Z,1.20
2023-03-17T11:08:49.500Z,1.15
2023-03-17T11:11:49.219Z,1.13
2023-03-17T11:14:18.900Z,0.98
2023-03-17T11:16:56.810Z,0.93
2023-03-17T11:19:58.427Z,0.90
2023-03-17T11:22:35.021Z,1.08
2023-03-17T11:25:11.529Z,1.20
2023-03-17T11:27:47.246Z,1.35
2023-03-17T11:30:47.608Z,1.00
2023-03-17T11:33:36.186Z,2.60
2023-03-17T11:37:00.109Z,2.00
2023-03-17T11:39:36.343Z,1.70
2023-03-17T11:42:23.614Z,1.10
2023-03-17T11:44:59.134Z,0.95
2023-03-17T11:47:52.733Z,1.20
2023-03-17T11:50:49.876Z,1.13
2023-03-17T11:53:36.501Z,0.95
2023-03-17T11:56:11.644Z,1.00
2023-03-17T11:58:46.574Z,1.13
2023-03-17T12:01:17.994Z,1.10
2023-03-17T12:04:03.431Z,2.33
2023-03-17T12:06:34.144Z,1.77
2023-03-17T12:09:24.697Z,1.23
2023-03-17T12:11:51.853Z,5.40
2023-03-17T12:14:28.618Z,3.03
2023-03-17T12:17:21.681Z,1.90
2023-03-17T12:20:09.555Z,7.40
2023-03-17T12:22:53.994Z,6.35
2023-03-17T12:25:40.654Z,6.25
2023-03-17T12:28:23.037Z,1.52
2023-03-17T12:30:54.216Z,2.47
2023-03-17T12:33:53.710Z,1.40
2023-03-17T12:36:21.777Z,1.15
2023-03-17T12:38:54.012Z,2.33
2023-03-17T12:41:32.697Z,1.23
2023-03-17T12:44:12.686Z,1.30
2023-03-17T12:46:53.846Z,1.20
2023-03-17T12:49:33.567Z,1.73
2023-03-17T12:52:06.899Z,3.05
2023-03-17T12:54:36.599Z,1.13
2023-03-17T12:57:14.780Z,1.30
2023-03-17T12:59:47.797Z,1.10
2023-03-17T13:02:23.200Z,1.15
2023-03-17T13:05:00.797Z,1.40
2023-03-17T13:07:41.516Z,1.20
2023-03-17T13:10:40.066Z,1.40
2023-03-17T13:13:31.640Z,1.30
2023-03-17T13:16:00.441Z,1.40
2023-03-17T13:18:47.824Z,1.40
2023-03-17T13:21:17.462Z,1.25
2023-03-17T13:23:59.594Z,1.42
2023-03-17T13:26:55.015Z,1.50
2023-03-17T13:29:38.329Z,1.50
2023-03-17T13:32:19.918Z,1.70
2023-03-17T13:34:55.737Z,1.67
2023-03-17T13:37:30.811Z,1.50
2023-03-17T13:40:18.990Z,1.60
2023-03-17T13:42:59.601Z,1.70
2023-03-17T13:45:37.242Z,1.80
2023-03-17T13:48:28.461Z,1.83
2023-03-17T13:51:13.898Z,1.75
2023-03-17T13:53:45.779Z,2.10
2023-03-17T13:56:22.425Z,1.80
2023-03-17T13:59:12.537Z,1.73
2023-03-17T14:01:47.521Z,1.73
2023-03-17T14:04:28.371Z,1.50
2023-03-17T14:06:59.563Z,1.88
2023-03-17T14:09:33.537Z,1.60
2023-03-17T14:12:05.142Z,1.77
2023-03-17T14:14:42.510Z,1.70
2023-03-17T14:17:22.437Z,1.80
2023-03-17T14:20:13.048Z,1.70
2023-03-17T14:22:44.988Z,1.67
2023-03-17T14:25:18.755Z,2.08
2023-03-17T14:27:48.124Z,2.00
2023-03-17T14:30:21.882Z,1.67
2023-03-17T14:32:52.064Z,1.50
2023-03-17T14:35:19.824Z,1.70
2023-03-17T14:37:46.344Z,1.58
2023-03-17T14:40:26.554Z,1.75
2023-03-17T14:42:53.052Z,1.60
2023-03-17T14:45:41.494Z,1.52
2023-03-17T14:48:14.622Z,2.50
2023-03-17T14:50:52.057Z,2.30
2023-03-17T14:53:19.446Z,1.60
2023-03-17T14:55:46.546Z,1.00
2023-03-17T14:58:27.268Z,0.90
2023-03-17T15:01:07.055Z,1.00
2023-03-17T15:03:38.387Z,1.02
2023-03-17T15:06:13.233Z,0.70
2023-03-17T15:08:43.245Z,0.73
2023-03-17T15:11:18.280Z,0.90
2023-03-17T15:13:45.058Z,1.08
2023-03-17T15:16:30.807Z,1.00
2023-03-17T15:19:15.708Z,0.90
2023-03-17T15:21:42.857Z,1.20
2023-03-17T15:24:33.957Z,0.80
2023-03-17T15:27:03.322Z,0.82
2023-03-17T15:29:30.018Z,0.80
2023-03-17T15:32:02.870Z,1.13
2023-03-17T15:34:29.368Z,1.23
2023-03-17T15:36:57.070Z,1.10
2023-03-17T15:39:24.452Z,1.10
2023-03-17T15:41:50.867Z,1.25
2023-03-17T15:44:17.273Z,1.65
2023-03-17T15:46:43.926Z,1.65
2023-03-17T15:49:12.167Z,1.92
2023-03-17T15:51:38.891Z,1.60
2023-03-17T15:54:05.365Z,1.50
2023-03-17T15:56:31.823Z,1.38
2023-03-17T15:58:58.221Z,1.17
2023-03-17T16:01:27.672Z,1.30
2023-03-17T16:03:54.489Z,1.85
2023-03-17T16:06:22.387Z,2.10
2023-03-17T16:08:50.031Z,1.55
2023-03-17T16:11:19.403Z,2.33
2023-03-17T16:13:46.956Z,2.15
2023-03-17T16:16:21.457Z,3.22
2023-03-17T16:18:51.537Z,2.30
2023-03-17T16:21:19.132Z,1.98
2023-03-17T16:23:47.097Z,1.75
2023-03-17T16:26:16.557Z,2.33
2023-03-17T16:28:45.647Z,2.60
2023-03-17T16:31:19.237Z,2.20
2023-03-17T16:33:46.263Z,2.55
2023-03-17T16:36:16.021Z,2.60
2023-03-17T16:38:42.914Z,3.00
2023-03-17T16:41:17.186Z,3.53
2023-03-17T16:43:45.455Z,3.28
2023-03-17T16:46:12.539Z,2.97
2023-03-17T16:48:39.104Z,2.40
2023-03-17T16:51:06.125Z,2.03
2023-03-17T16:53:32.657Z,1.95
2023-03-17T16:55:59.208Z,2.00
2023-03-17T16:58:36.721Z,1.85
2023-03-17T17:01:09.648Z,2.20
2023-03-17T17:03:37.837Z,2.80
2023-03-17T17:06:05.759Z,2.42
2023-03-17T17:08:32.532Z,1.77
2023-03-17T17:10:59.030Z,2.35
2023-03-17T17:13:25.593Z,1.80
2023-03-17T17:15:52.207Z,2.10
2023-03-17T17:18:24.660Z,2.90
2023-03-17T17:20:52.539Z,2.70
2023-03-17T17:23:24.197Z,2.60
2023-03-17T17:25:51.590Z,2.63
2023-03-17T17:28:19.790Z,2.53
2023-03-17T17:30:48.006Z,4.10
2023-03-17T17:33:16.136Z,4.43
2023-03-17T17:35:44.449Z,3.70
2023-03-17T17:38:17.476Z,3.80
2023-03-17T17:40:43.899Z,4.90
2023-03-17T17:43:10.519Z,4.38
2023-03-17T17:45:37.201Z,4.70
2023-03-17T17:48:03.929Z,3.97
2023-03-17T17:50:31.335Z,3.70
2023-03-17T17:53:04.966Z,4.13
2023-03-17T17:55:33.721Z,5.20
2023-03-17T17:58:01.049Z,5.50
2023-03-17T18:00:27.883Z,5.20
2023-03-17T18:02:54.323Z,5.70
2023-03-17T18:05:20.806Z,6.57
2023-03-17T18:07:47.304Z,7.53
2023-03-17T18:10:22.215Z,8.77
2023-03-17T18:12:48.956Z,7.07
2023-03-17T18:15:15.957Z,6.40
2023-03-17T18:17:43.251Z,6.13
2023-03-17T18:20:15.394Z,9.13
2023-03-17T18:22:41.886Z,6.03
2023-03-17T18:25:09.931Z,5.97
2023-03-17T18:27:38.154Z,6.17
2023-03-17T18:30:08.508Z,4.43
2023-03-17T18:32:35.568Z,3.50
2023-03-17T18:35:08.021Z,2.75
2023-03-17T18:37:35.582Z,2.60
2023-03-17T18:40:19.111Z,1.73
2023-03-17T18:42:46.539Z,1.50
2023-03-17T18:45:13.502Z,1.30
2023-03-17T18:47:41.678Z,1.10
2023-03-17T18:50:10.752Z,1.23
2023-03-17T18:52:39.178Z,0.90
2023-03-17T18:55:06.566Z,1.30
2023-03-17T18:57:33.655Z,1.73
2023-03-17T19:00:00.185Z,2.20
2023-03-17T19:02:26.638Z,2.72
2023-03-17T19:04:53.192Z,2.07
2023-03-17T19:07:19.714Z,2.30
2023-03-17T19:09:46.160Z,3.43
2023-03-17T19:12:13.469Z,5.50
2023-03-17T19:14:40.315Z,4.43
2023-03-17T19:17:08.651Z,4.20
2023-03-17T19:19:35.789Z,4.10
2023-03-17T19:22:03.918Z,3.30
2023-03-17T19:24:31.535Z,2.90
2023-03-17T19:26:58.015Z,2.70
2023-03-17T19:29:24.750Z,2.60
2023-03-17T19:31:51.150Z,2.70
2023-03-17T19:34:17.797Z,2.90
2023-03-17T19:36:46.451Z,3.13
2023-03-17T19:39:14.469Z,2.57
2023-03-17T19:41:41.018Z,3.30
2023-03-17T19:44:07.732Z,4.43
2023-03-17T19:46:37.904Z,3.17
2023-03-17T19:49:05.344Z,7.43
2023-03-17T19:51:32.790Z,3.87
2023-03-17T19:53:59.506Z,3.20
2023-03-17T19:56:27.784Z,4.22
2023-03-17T19:58:54.902Z,6.73
2023-03-17T20:01:22.782Z,6.47
2023-03-17T20:03:49.950Z,5.30
2023-03-17T20:06:16.779Z,4.77
2023-03-17T20:08:43.736Z,4.77
2023-03-17T20:11:12.324Z,5.70
2023-03-17T20:13:39.904Z,11.03
2023-03-17T20:16:07.182Z,11.53
2023-03-17T20:18:34.283Z,4.77
2023-03-17T20:21:05.128Z,2.77
2023-03-17T20:23:32.054Z,1.60
2023-03-17T20:25:58.690Z,1.60
2023-03-17T20:28:25.175Z,2.40
2023-03-17T20:30:51.831Z,2.20
2023-03-17T20:33:18.501Z,2.93
2023-03-17T20:35:48.698Z,2.87
2023-03-17T20:38:15.817Z,1.63
2023-03-17T20:40:42.585Z,1.87
2023-03-17T20:43:09.463Z,2.20
2023-03-17T20:45:36.984Z,1.67
2023-03-17T20:48:06.006Z,2.03
2023-03-17T20:50:34.289Z,1.70
2023-03-17T20:53:01.530Z,1.60
2023-03-17T20:55:28.285Z,1.57
2023-03-17T20:57:54.820Z,1.53
2023-03-17T21:00:21.974Z,2.10
2023-03-17T21:02:50.328Z,1.90
2023-03-17T21:05:23.113Z,1.43
2023-03-17T21:07:50.611Z,1.30
2023-03-17T21:10:17.471Z,1.67
2023-03-17T21:12:44.149Z,1.30
2023-03-17T21:15:11.172Z,1.30
2023-03-17T21:17:41.917Z,1.10
2023-03-17T21:20:11.500Z,1.20
2023-03-17T21:22:39.866Z,1.40
2023-03-17T21:25:08.716Z,1.40
2023-03-17T21:27:39.534Z,1.20
2023-03-17T21:30:09.709Z,1.10
2023-03-17T21:32:36.267Z,1.33
2023-03-17T21:35:03.300Z,1.50
2023-03-17T21:37:29.759Z,1.33
2023-03-17T21:39:56.686Z,1.70
2023-03-17T21:42:24.611Z,1.40
2023-03-17T21:44:55.190Z,1.30
2023-03-17T21:47:21.687Z,1.00
2023-03-17T21:49:48.111Z,1.23
2023-03-17T21:52:15.122Z,0.80
2023-03-17T21:54:42.204Z,1.47
2023-03-17T21:57:08.749Z,0.90
2023-03-17T21:59:35.722Z,1.10
2023-03-17T22:02:02.874Z,1.93
2023-03-17T22:04:29.863Z,1.63
2023-03-17T22:06:57.074Z,1.50
2023-03-17T22:09:23.536Z,1.60
2023-03-17T22:11:50.062Z,2.03
2023-03-17T22:14:19.974Z,1.83
2023-03-17T22:16:48.021Z,1.50
2023-03-17T22:19:14.873Z,1.40
2023-03-17T22:21:42.094Z,1.33
2023-03-17T22:24:09.124Z,1.40
2023-03-17T22:26:35.888Z,1.30
2023-03-17T22:29:02.530Z,1.30
2023-03-17T22:31:30.041Z,1.30
2023-03-17T22:33:59.073Z,1.10
2023-03-17T22:36:26.370Z,1.10
2023-03-17T22:38:53.310Z,1.20
2023-03-17T22:41:22.512Z,1.23
2023-03-17T22:43:49.035Z,1.10
2023-03-17T22:46:16.334Z,1.00
2023-03-17T22:48:43.462Z,1.33
2023-03-17T22:51:14.534Z,0.97
2023-03-17T22:53:41.271Z,1.40
2023-03-17T22:56:08.828Z,1.60
2023-03-17T22:58:35.697Z,1.00
2023-03-17T23:01:03.725Z,1.30
2023-03-17T23:03:31.669Z,1.60
2023-03-17T23:05:59.720Z,1.70
2023-03-17T23:08:29.241Z,1.60
2023-03-17T23:10:58.020Z,1.80
2023-03-17T23:13:24.618Z,1.47
2023-03-17T23:15:51.609Z,1.30
2023-03-17T23:18:18.094Z,1.20
2023-03-17T23:20:45.704Z,1.47
2023-03-17T23:23:12.696Z,1.53
2023-03-17T23:25:39.687Z,1.20
2023-03-17T23:28:07.528Z,1.20
2023-03-17T23:30:35.707Z,1.10
2023-03-17T23:33:04.586Z,1.50
2023-03-17T23:35:31.566Z,1.47
2023-03-17T23:37:58.091Z,1.30
2023-03-17T23:40:24.518Z,1.30
2023-03-17T23:42:54.233Z,1.20
2023-03-17T23:45:23.129Z,1.23
2023-03-17T23:47:52.030Z,1.33
2023-03-17T23:50:19.863Z,1.40
2023-03-17T23:52:47.160Z,1.40
2023-03-17T23:55:14.850Z,1.40
2023-03-17T23:57:41.913Z,1.40
